createdAt,value
2022-10-14T00:00:02.355Z,20.67
2022-10-14T00:00:33.757Z,20.68
2022-10-14T00:01:05.156Z,20.68
2022-10-14T00:01:36.590Z,20.68
2022-10-14T00:02:08.051Z,20.66
2022-10-14T00:02:39.515Z,20.66
2022-10-14T00:03:11.038Z,20.65
2022-10-14T00:03:42.419Z,20.65
2022-10-14T00:04:13.823Z,20.64
2022-10-14T00:04:45.210Z,20.65
2022-10-14T00:05:16.601Z,20.64
2022-10-14T00:05:47.990Z,20.64
2022-10-14T00:06:19.403Z,20.63
2022-10-14T00:06:50.833Z,20.63
2022-10-14T00:07:22.554Z,20.62
2022-10-14T00:07:54.219Z,20.62
2022-10-14T00:08:25.744Z,20.61
2022-10-14T00:08:57.152Z,20.61
2022-10-14T00:09:28.592Z,20.61
2022-10-14T00:09:59.982Z,20.61
2022-10-14T00:10:31.382Z,20.60
2022-10-14T00:11:02.784Z,20.60
2022-10-14T00:11:34.171Z,20.60
2022-10-14T00:12:05.551Z,20.60
2022-10-14T00:12:36.932Z,20.59
2022-10-14T00:13:08.319Z,20.59
2022-10-14T00:13:39.801Z,20.59
2022-10-14T00:14:11.189Z,20.58
2022-10-14T00:14:42.575Z,20.57
2022-10-14T00:15:14.008Z,20.57
2022-10-14T00:15:45.532Z,20.58
2022-10-14T00:16:16.947Z,20.56
2022-10-14T00:16:48.323Z,20.56
2022-10-14T00:17:20.009Z,20.57
2022-10-14T00:17:51.668Z,20.56
2022-10-14T00:18:23.057Z,20.55
2022-10-14T00:18:54.571Z,20.55
2022-10-14T00:19:25.956Z,20.55
2022-10-14T00:19:57.341Z,20.56
2022-10-14T00:20:28.719Z,20.54
2022-10-14T00:21:00.118Z,20.55
2022-10-14T00:21:31.499Z,20.54
2022-10-14T00:22:02.885Z,20.54
2022-10-14T00:22:34.299Z,20.52
2022-10-14T00:23:05.688Z,20.52
2022-10-14T00:23:37.080Z,20.52
2022-10-14T00:24:08.524Z,20.52
2022-10-14T00:24:39.908Z,20.52
2022-10-14T00:25:11.352Z,20.50
2022-10-14T00:25:42.732Z,20.51
2022-10-14T00:26:14.111Z,20.50
2022-10-14T00:26:45.510Z,20.49
2022-10-14T00:27:16.888Z,20.50
2022-10-14T00:27:48.285Z,20.50
2022-10-14T00:28:19.698Z,20.50
2022-10-14T00:28:51.149Z,20.49
2022-10-14T00:29:22.664Z,20.49
2022-10-14T00:29:54.053Z,20.49
2022-10-14T00:30:25.458Z,20.48
2022-10-14T00:30:56.848Z,20.48
2022-10-14T00:31:28.265Z,20.48
2022-10-14T00:31:59.652Z,20.49
2022-10-14T00:32:31.044Z,20.48
2022-10-14T00:33:02.438Z,20.48
2022-10-14T00:33:33.819Z,20.48
2022-10-14T00:34:05.204Z,20.47
2022-10-14T00:34:36.622Z,20.47
2022-10-14T00:35:08.030Z,20.46
2022-10-14T00:35:39.435Z,20.46
2022-10-14T00:36:10.816Z,20.46
2022-10-14T00:36:42.224Z,20.46
2022-10-14T00:37:13.618Z,20.46
2022-10-14T00:37:45.003Z,20.45
2022-10-14T00:38:16.387Z,20.46
2022-10-14T00:38:47.786Z,20.45
2022-10-14T00:39:19.172Z,20.45
2022-10-14T00:39:54.769Z,20.45
2022-10-14T00:40:28.360Z,20.43
2022-10-14T00:40:59.745Z,20.44
2022-10-14T00:41:31.145Z,20.45
2022-10-14T00:42:02.541Z,20.44
2022-10-14T00:42:33.938Z,20.43
2022-10-14T00:43:05.345Z,20.43
2022-10-14T00:43:36.733Z,20.43
2022-10-14T00:44:08.120Z,20.44
2022-10-14T00:44:39.576Z,20.42
2022-10-14T00:45:10.980Z,20.43
2022-10-14T00:45:42.364Z,20.42
2022-10-14T00:46:13.744Z,20.42
2022-10-14T00:46:45.132Z,20.43
2022-10-14T00:47:16.546Z,20.40
2022-10-14T00:47:47.952Z,20.41
2022-10-14T00:48:19.356Z,20.41
2022-10-14T00:48:50.768Z,20.41
2022-10-14T00:49:22.182Z,20.40
2022-10-14T00:49:53.608Z,20.41
2022-10-14T00:50:25.018Z,20.40
2022-10-14T00:50:56.421Z,20.40
2022-10-14T00:51:27.820Z,20.40
2022-10-14T00:51:59.200Z,20.39
2022-10-14T00:52:30.592Z,20.39
2022-10-14T00:53:01.981Z,20.39
2022-10-14T00:53:33.363Z,20.38
2022-10-14T00:54:04.776Z,20.38
2022-10-14T00:54:36.161Z,20.37
2022-10-14T00:55:07.591Z,20.38
2022-10-14T00:55:38.984Z,20.38
2022-10-14T00:56:10.377Z,20.37
2022-10-14T00:56:41.779Z,20.37
2022-10-14T00:57:13.170Z,20.37
2022-10-14T00:57:44.560Z,20.37
2022-10-14T00:58:15.944Z,20.36
2022-10-14T00:58:47.348Z,20.36
2022-10-14T00:59:18.766Z,20.36
2022-10-14T00:59:50.171Z,20.36
2022-10-14T01:00:21.676Z,20.35
2022-10-14T01:00:53.249Z,20.35
2022-10-14T01:01:24.692Z,20.35
2022-10-14T01:01:56.106Z,20.34
2022-10-14T01:02:27.498Z,20.35
2022-10-14T01:02:58.891Z,20.34
2022-10-14T01:03:30.280Z,20.34
2022-10-14T01:04:01.665Z,20.34
2022-10-14T01:04:33.067Z,20.34
2022-10-14T01:05:04.570Z,20.34
2022-10-14T01:05:36.017Z,20.33
2022-10-14T01:06:07.414Z,20.32
2022-10-14T01:06:38.806Z,20.33
2022-10-14T01:07:10.190Z,20.33
2022-10-14T01:07:41.572Z,20.33
2022-10-14T01:08:12.971Z,20.32
2022-10-14T01:08:44.367Z,20.32
2022-10-14T01:09:15.772Z,20.31
2022-10-14T01:09:47.159Z,20.32
2022-10-14T01:10:18.542Z,20.31
2022-10-14T01:10:50.065Z,20.31
2022-10-14T01:11:21.476Z,20.30
2022-10-14T01:12:09.778Z,20.30
2022-10-14T01:12:44.260Z,20.29
2022-10-14T01:13:15.649Z,20.29
2022-10-14T01:13:47.037Z,20.29
2022-10-14T01:14:18.439Z,20.28
2022-10-14T01:14:49.824Z,20.28
2022-10-14T01:15:21.213Z,20.27
2022-10-14T01:15:52.777Z,20.28
2022-10-14T01:16:24.194Z,20.27
2022-10-14T01:16:55.585Z,20.27
2022-10-14T01:17:26.992Z,20.27
2022-10-14T01:17:58.392Z,20.27
2022-10-14T01:18:29.795Z,20.27
2022-10-14T01:19:01.179Z,20.26
2022-10-14T01:19:32.582Z,20.26
2022-10-14T01:20:03.998Z,20.26
2022-10-14T01:20:35.394Z,20.26
2022-10-14T01:21:06.795Z,20.25
2022-10-14T01:21:38.195Z,20.26
2022-10-14T01:22:09.580Z,20.25
2022-10-14T01:22:40.979Z,20.25
2022-10-14T01:23:12.374Z,20.25
2022-10-14T01:23:43.751Z,20.23
2022-10-14T01:24:15.145Z,20.24
2022-10-14T01:24:46.550Z,20.24
2022-10-14T01:25:17.945Z,20.23
2022-10-14T01:25:49.350Z,20.23
2022-10-14T01:26:20.871Z,20.22
2022-10-14T01:26:52.257Z,20.23
2022-10-14T01:27:23.643Z,20.22
2022-10-14T01:27:55.034Z,20.23
2022-10-14T01:28:26.535Z,20.22
2022-10-14T01:28:58.093Z,20.22
2022-10-14T01:29:29.517Z,20.22
2022-10-14T01:30:00.919Z,20.22
2022-10-14T01:30:32.312Z,20.21
2022-10-14T01:31:03.721Z,20.21
2022-10-14T01:31:35.246Z,20.21
2022-10-14T01:32:06.657Z,20.20
2022-10-14T01:32:38.055Z,20.20
2022-10-14T01:33:09.440Z,20.20
2022-10-14T01:33:40.853Z,20.19
2022-10-14T01:34:12.256Z,20.20
2022-10-14T01:34:43.646Z,20.20
2022-10-14T01:35:15.064Z,20.19
2022-10-14T01:35:46.444Z,20.19
2022-10-14T01:36:17.848Z,20.19
2022-10-14T01:36:49.301Z,20.18
2022-10-14T01:37:20.707Z,20.18
2022-10-14T01:37:52.107Z,20.18
2022-10-14T01:38:23.526Z,20.18
2022-10-14T01:38:54.950Z,20.18
2022-10-14T01:39:26.340Z,20.17
2022-10-14T01:39:57.753Z,20.17
2022-10-14T01:40:29.146Z,20.16
2022-10-14T01:41:00.539Z,20.18
2022-10-14T01:41:31.929Z,20.16
2022-10-14T01:42:03.324Z,20.16
2022-10-14T01:42:34.712Z,20.16
2022-10-14T01:43:06.106Z,20.16
2022-10-14T01:43:37.489Z,20.16
2022-10-14T01:44:08.871Z,20.15
2022-10-14T01:44:40.251Z,20.15
2022-10-14T01:45:11.637Z,20.16
2022-10-14T01:45:43.020Z,20.15
2022-10-14T01:46:14.414Z,20.15
2022-10-14T01:46:45.896Z,20.15
2022-10-14T01:47:17.297Z,20.15
2022-10-14T01:47:48.680Z,20.14
2022-10-14T01:48:20.059Z,20.15
2022-10-14T01:48:51.446Z,20.13
2022-10-14T01:49:22.833Z,20.15
2022-10-14T01:49:54.222Z,20.13
2022-10-14T01:50:25.608Z,20.13
2022-10-14T01:50:56.993Z,20.14
2022-10-14T01:51:28.378Z,20.13
2022-10-14T01:51:59.844Z,20.13
2022-10-14T01:52:31.249Z,20.13
2022-10-14T01:53:02.658Z,20.13
2022-10-14T01:53:34.051Z,20.13
2022-10-14T01:54:05.452Z,20.13
2022-10-14T01:54:36.840Z,20.13
2022-10-14T01:55:08.263Z,20.12
2022-10-14T01:55:39.739Z,20.11
2022-10-14T01:56:11.154Z,20.12
2022-10-14T01:56:42.546Z,20.12
2022-10-14T01:57:14.006Z,20.11
2022-10-14T01:57:45.392Z,20.11
2022-10-14T01:58:16.793Z,20.12
2022-10-14T01:58:48.177Z,20.11
2022-10-14T01:59:19.568Z,20.11
2022-10-14T01:59:50.957Z,20.11
2022-10-14T02:00:22.361Z,20.11
2022-10-14T02:00:53.749Z,20.11
2022-10-14T02:01:25.172Z,20.10
2022-10-14T02:01:56.607Z,20.10
2022-10-14T02:02:28.175Z,20.08
2022-10-14T02:02:59.551Z,20.08
2022-10-14T02:03:30.969Z,20.08
2022-10-14T02:04:02.375Z,20.08
2022-10-14T02:04:33.824Z,20.08
2022-10-14T02:05:05.208Z,20.07
2022-10-14T02:05:36.607Z,20.07
2022-10-14T02:06:07.993Z,20.07
2022-10-14T02:06:39.387Z,20.07
2022-10-14T02:07:10.885Z,20.07
2022-10-14T02:07:42.276Z,20.07
2022-10-14T02:08:13.668Z,20.07
2022-10-14T02:08:45.070Z,20.07
2022-10-14T02:09:16.482Z,20.06
2022-10-14T02:09:47.872Z,20.06
2022-10-14T02:10:19.271Z,20.06
2022-10-14T02:10:50.664Z,20.05
2022-10-14T02:11:22.051Z,20.05
2022-10-14T02:11:53.436Z,20.05
2022-10-14T02:12:24.923Z,20.05
2022-10-14T02:12:56.341Z,20.05
2022-10-14T02:13:27.725Z,20.04
2022-10-14T02:13:59.113Z,20.04
2022-10-14T02:14:30.528Z,20.04
2022-10-14T02:15:01.937Z,20.04
2022-10-14T02:15:33.348Z,20.04
2022-10-14T02:16:04.737Z,20.04
2022-10-14T02:16:36.120Z,20.03
2022-10-14T02:17:07.533Z,20.03
2022-10-14T02:17:39.012Z,20.03
2022-10-14T02:18:10.398Z,20.03
2022-10-14T02:18:41.792Z,20.03
2022-10-14T02:19:13.175Z,20.02
2022-10-14T02:19:44.566Z,20.03
2022-10-14T02:20:15.956Z,20.02
2022-10-14T02:20:47.344Z,20.02
2022-10-14T02:21:18.724Z,20.02
2022-10-14T02:21:50.113Z,20.01
2022-10-14T02:22:21.775Z,20.01
2022-10-14T02:22:53.489Z,20.01
2022-10-14T02:23:24.912Z,20.01
2022-10-14T02:23:56.304Z,20.01
2022-10-14T02:24:27.687Z,20.00
2022-10-14T02:24:59.072Z,20.01
2022-10-14T02:25:30.469Z,20.00
2022-10-14T02:26:01.859Z,19.99
2022-10-14T02:26:33.263Z,19.99
2022-10-14T02:27:04.653Z,20.00
2022-10-14T02:27:36.095Z,19.98
2022-10-14T02:28:07.480Z,19.98
2022-10-14T02:28:38.943Z,19.98
2022-10-14T02:29:10.367Z,19.98
2022-10-14T02:29:41.757Z,19.99
2022-10-14T02:30:13.162Z,19.99
2022-10-14T02:30:44.553Z,19.98
2022-10-14T02:31:15.955Z,19.97
2022-10-14T02:31:47.335Z,19.98
2022-10-14T02:32:18.995Z,19.97
2022-10-14T02:32:50.713Z,19.98
2022-10-14T02:33:22.123Z,19.97
2022-10-14T02:33:53.584Z,19.97
2022-10-14T02:34:24.973Z,19.98
2022-10-14T02:34:56.379Z,19.97
2022-10-14T02:35:27.789Z,19.96
2022-10-14T02:35:59.181Z,19.97
2022-10-14T02:36:30.589Z,19.97
2022-10-14T02:37:01.982Z,19.96
2022-10-14T02:37:33.404Z,19.96
2022-10-14T02:38:04.837Z,19.96
2022-10-14T02:38:36.228Z,19.96
2022-10-14T02:39:07.621Z,19.94
2022-10-14T02:39:39.021Z,19.94
2022-10-14T02:40:10.409Z,19.94
2022-10-14T02:40:41.795Z,19.94
2022-10-14T02:41:13.201Z,19.93
2022-10-14T02:41:44.595Z,19.93
2022-10-14T02:42:15.980Z,19.93
2022-10-14T02:42:47.477Z,19.93
2022-10-14T02:43:18.997Z,19.92
2022-10-14T02:43:50.385Z,19.93
2022-10-14T02:44:21.797Z,19.92
2022-10-14T02:44:53.181Z,19.92
2022-10-14T02:45:24.566Z,19.92
2022-10-14T02:45:55.954Z,19.92
2022-10-14T02:46:27.355Z,19.90
2022-10-14T02:46:58.734Z,19.91
2022-10-14T02:47:30.121Z,19.91
2022-10-14T02:48:01.625Z,19.90
2022-10-14T02:48:33.035Z,19.91
2022-10-14T02:49:04.415Z,19.90
2022-10-14T02:49:35.814Z,19.90
2022-10-14T02:50:07.224Z,19.90
2022-10-14T02:50:38.615Z,19.90
2022-10-14T02:51:10.040Z,19.90
2022-10-14T02:51:41.444Z,19.89
2022-10-14T02:52:12.838Z,19.89
2022-10-14T02:52:44.224Z,19.89
2022-10-14T02:53:15.680Z,19.89
2022-10-14T02:53:47.067Z,19.89
2022-10-14T02:54:18.476Z,19.88
2022-10-14T02:54:49.856Z,19.88
2022-10-14T02:55:21.242Z,19.88
2022-10-14T02:55:52.633Z,19.88
2022-10-14T02:56:24.037Z,19.88
2022-10-14T02:56:55.423Z,19.88
2022-10-14T02:57:26.821Z,19.87
2022-10-14T02:57:58.233Z,19.86
2022-10-14T02:58:29.757Z,19.86
2022-10-14T02:59:01.164Z,19.87
2022-10-14T02:59:32.573Z,19.87
2022-10-14T03:00:03.975Z,19.86
2022-10-14T03:00:35.383Z,19.86
2022-10-14T03:01:06.772Z,19.86
2022-10-14T03:01:38.242Z,19.86
2022-10-14T03:02:09.698Z,19.86
2022-10-14T03:02:41.161Z,19.86
2022-10-14T03:03:12.552Z,19.85
2022-10-14T03:03:44.004Z,19.85
2022-10-14T03:04:15.389Z,19.86
2022-10-14T03:04:46.785Z,19.84
2022-10-14T03:05:18.175Z,19.85
2022-10-14T03:05:49.555Z,19.85
2022-10-14T03:06:20.939Z,19.85
2022-10-14T03:06:52.323Z,19.84
2022-10-14T03:07:23.706Z,19.84
2022-10-14T03:07:55.112Z,19.83
2022-10-14T03:08:26.513Z,19.83
2022-10-14T03:08:58.006Z,19.83
2022-10-14T03:09:29.396Z,19.83
2022-10-14T03:10:00.783Z,19.83
2022-10-14T03:10:32.189Z,19.83
2022-10-14T03:11:03.581Z,19.83
2022-10-14T03:11:34.967Z,19.82
2022-10-14T03:12:06.373Z,19.82
2022-10-14T03:12:37.802Z,19.82
2022-10-14T03:13:09.203Z,19.81
2022-10-14T03:13:40.587Z,19.82
2022-10-14T03:14:12.125Z,19.80
2022-10-14T03:14:43.512Z,19.81
2022-10-14T03:15:14.896Z,19.80
2022-10-14T03:15:46.279Z,19.81
2022-10-14T03:16:17.694Z,19.79
2022-10-14T03:16:49.103Z,19.79
2022-10-14T03:17:20.512Z,19.79
2022-10-14T03:17:51.925Z,19.80
2022-10-14T03:18:23.312Z,19.79
2022-10-14T03:18:54.724Z,19.80
2022-10-14T03:19:26.153Z,19.79
2022-10-14T03:19:57.537Z,19.78
2022-10-14T03:20:28.920Z,19.80
2022-10-14T03:21:00.313Z,19.78
2022-10-14T03:21:31.700Z,19.78
2022-10-14T03:22:03.107Z,19.78
2022-10-14T03:22:34.501Z,19.77
2022-10-14T03:23:05.884Z,19.78
2022-10-14T03:23:37.441Z,19.77
2022-10-14T03:24:08.879Z,19.77
2022-10-14T03:24:40.346Z,19.77
2022-10-14T03:25:11.747Z,19.76
2022-10-14T03:25:43.133Z,19.76
2022-10-14T03:26:14.516Z,19.76
2022-10-14T03:26:45.909Z,19.76
2022-10-14T03:27:17.311Z,19.76
2022-10-14T03:27:48.701Z,19.75
2022-10-14T03:28:20.132Z,19.75
2022-10-14T03:28:51.645Z,19.76
2022-10-14T03:29:23.196Z,19.75
2022-10-14T03:29:54.619Z,19.75
2022-10-14T03:30:26.027Z,19.75
2022-10-14T03:30:57.412Z,19.75
2022-10-14T03:31:28.791Z,19.74
2022-10-14T03:32:00.195Z,19.74
2022-10-14T03:32:31.582Z,19.73
2022-10-14T03:33:02.984Z,19.74
2022-10-14T03:33:34.362Z,19.73
2022-10-14T03:34:06.221Z,19.73
2022-10-14T03:34:37.603Z,19.73
2022-10-14T03:35:09.077Z,19.73
2022-10-14T03:35:40.535Z,19.71
2022-10-14T03:36:11.934Z,19.72
2022-10-14T03:36:43.499Z,19.72
2022-10-14T03:37:14.900Z,19.72
2022-10-14T03:37:46.283Z,19.70
2022-10-14T03:38:17.677Z,19.71
2022-10-14T03:38:49.068Z,19.72
2022-10-14T03:39:20.475Z,19.71
2022-10-14T03:39:51.867Z,19.71
2022-10-14T03:40:23.361Z,19.71
2022-10-14T03:40:54.746Z,19.70
2022-10-14T03:41:26.137Z,19.70
2022-10-14T03:41:57.515Z,19.71
2022-10-14T03:42:29.028Z,19.71
2022-10-14T03:43:00.416Z,19.70
2022-10-14T03:43:31.825Z,19.70
2022-10-14T03:44:03.233Z,19.69
2022-10-14T03:44:34.622Z,19.70
2022-10-14T03:45:06.008Z,19.70
2022-10-14T03:45:37.502Z,19.70
2022-10-14T03:46:08.913Z,19.71
2022-10-14T03:46:40.304Z,19.70
2022-10-14T03:47:11.702Z,19.69
2022-10-14T03:47:43.089Z,19.69
2022-10-14T03:48:14.481Z,19.69
2022-10-14T03:48:45.869Z,19.69
2022-10-14T03:49:17.261Z,19.69
2022-10-14T03:49:48.659Z,19.69
2022-10-14T03:50:20.059Z,19.69
2022-10-14T03:50:51.591Z,19.68
2022-10-14T03:51:22.976Z,19.69
2022-10-14T03:51:54.380Z,19.68
2022-10-14T03:52:25.765Z,19.68
2022-10-14T03:52:57.152Z,19.67
2022-10-14T03:53:28.539Z,19.67
2022-10-14T03:53:59.994Z,19.68
2022-10-14T03:54:31.385Z,19.67
2022-10-14T03:55:02.778Z,19.67
2022-10-14T03:55:34.164Z,19.65
2022-10-14T03:56:05.625Z,19.68
2022-10-14T03:56:37.016Z,19.67
2022-10-14T03:57:08.408Z,19.67
2022-10-14T03:57:39.787Z,19.66
2022-10-14T03:58:11.202Z,19.66
2022-10-14T03:58:42.587Z,19.66
2022-10-14T03:59:13.994Z,19.66
2022-10-14T03:59:45.384Z,19.65
2022-10-14T04:00:16.777Z,19.65
2022-10-14T04:00:48.163Z,19.65
2022-10-14T04:01:19.643Z,19.65
2022-10-14T04:01:51.135Z,19.65
2022-10-14T04:02:22.897Z,19.65
2022-10-14T04:02:54.620Z,19.65
2022-10-14T04:03:26.008Z,19.65
2022-10-14T04:03:57.398Z,19.64
2022-10-14T04:04:28.792Z,19.63
2022-10-14T04:05:01.265Z,19.64
2022-10-14T04:05:32.772Z,19.63
2022-10-14T04:06:04.165Z,19.62
2022-10-14T04:06:35.606Z,19.62
2022-10-14T04:07:07.633Z,19.63
2022-10-14T04:07:39.049Z,19.63
2022-10-14T04:08:10.446Z,19.63
2022-10-14T04:08:41.833Z,19.63
2022-10-14T04:09:13.230Z,19.62
2022-10-14T04:09:44.639Z,19.62
2022-10-14T04:10:16.019Z,19.61
2022-10-14T04:10:47.405Z,19.61
2022-10-14T04:11:18.833Z,19.61
2022-10-14T04:11:50.378Z,19.61
2022-10-14T04:12:22.020Z,19.62
2022-10-14T04:12:53.573Z,19.61
2022-10-14T04:13:24.973Z,19.59
2022-10-14T04:13:56.361Z,19.60
2022-10-14T04:14:27.748Z,19.59
2022-10-14T04:14:59.135Z,19.60
2022-10-14T04:15:30.516Z,19.60
2022-10-14T04:16:01.904Z,19.60
2022-10-14T04:16:33.294Z,19.60
2022-10-14T04:17:04.780Z,19.58
2022-10-14T04:17:36.188Z,19.58
2022-10-14T04:18:07.571Z,19.58
2022-10-14T04:18:38.960Z,19.58
2022-10-14T04:19:10.375Z,19.58
2022-10-14T04:19:41.784Z,19.58
2022-10-14T04:20:13.183Z,19.57
2022-10-14T04:20:44.590Z,19.58
2022-10-14T04:21:15.983Z,19.58
2022-10-14T04:21:47.404Z,19.57
2022-10-14T04:22:19.110Z,19.57
2022-10-14T04:22:50.671Z,19.57
2022-10-14T04:23:22.061Z,19.56
2022-10-14T04:23:53.457Z,19.57
2022-10-14T04:24:24.884Z,19.57
2022-10-14T04:24:56.268Z,19.56
2022-10-14T04:25:27.656Z,19.56
2022-10-14T04:25:59.072Z,19.56
2022-10-14T04:26:30.473Z,19.56
2022-10-14T04:27:01.860Z,19.55
2022-10-14T04:27:33.383Z,19.54
2022-10-14T04:28:04.765Z,19.55
2022-10-14T04:28:36.185Z,19.55
2022-10-14T04:29:07.593Z,19.55
2022-10-14T04:29:39.000Z,19.55
2022-10-14T04:30:10.399Z,19.54
2022-10-14T04:30:41.799Z,19.55
2022-10-14T04:31:13.194Z,19.55
2022-10-14T04:31:44.579Z,19.54
2022-10-14T04:32:15.969Z,19.54
2022-10-14T04:32:47.397Z,19.54
2022-10-14T04:33:18.804Z,19.54
2022-10-14T04:33:50.211Z,19.55
2022-10-14T04:34:21.594Z,19.54
2022-10-14T04:34:52.978Z,19.54
2022-10-14T04:35:24.360Z,19.54
2022-10-14T04:35:55.749Z,19.54
2022-10-14T04:36:27.151Z,19.54
2022-10-14T04:36:58.604Z,19.54
2022-10-14T04:37:30.015Z,19.54
2022-10-14T04:38:01.496Z,19.53
2022-10-14T04:38:32.880Z,19.54
2022-10-14T04:39:04.289Z,19.54
2022-10-14T04:39:35.698Z,19.54
2022-10-14T04:40:07.084Z,19.54
2022-10-14T04:40:38.493Z,19.53
2022-10-14T04:41:09.882Z,19.54
2022-10-14T04:41:41.274Z,19.54
2022-10-14T04:42:12.671Z,19.53
2022-10-14T04:42:44.057Z,19.53
2022-10-14T04:43:15.535Z,19.54
2022-10-14T04:43:46.924Z,19.55
2022-10-14T04:44:18.313Z,19.53
2022-10-14T04:44:49.704Z,19.53
2022-10-14T04:45:21.097Z,19.53
2022-10-14T04:45:52.488Z,19.53
2022-10-14T04:46:23.953Z,19.53
2022-10-14T04:46:55.404Z,19.54
2022-10-14T04:47:26.791Z,19.53
2022-10-14T04:47:58.173Z,19.54
2022-10-14T04:48:29.610Z,19.53
2022-10-14T04:49:00.996Z,19.53
2022-10-14T04:49:32.385Z,19.53
2022-10-14T04:50:03.781Z,19.53
2022-10-14T04:50:35.163Z,19.53
2022-10-14T04:51:06.575Z,19.53
2022-10-14T04:51:37.971Z,19.52
2022-10-14T04:52:09.364Z,19.52
2022-10-14T04:52:40.761Z,19.53
2022-10-14T04:53:14.036Z,19.53
2022-10-14T04:53:46.328Z,19.52
2022-10-14T04:54:17.719Z,19.52
2022-10-14T04:54:49.108Z,19.52
2022-10-14T04:55:20.493Z,19.51
2022-10-14T04:55:51.878Z,19.50
2022-10-14T04:56:23.285Z,19.52
2022-10-14T04:56:54.672Z,19.50
2022-10-14T04:57:26.078Z,19.51
2022-10-14T04:57:57.468Z,19.50
2022-10-14T04:58:28.854Z,19.50
2022-10-14T04:59:00.275Z,19.50
2022-10-14T04:59:31.679Z,19.50
2022-10-14T05:00:03.068Z,19.50
2022-10-14T05:00:34.449Z,19.50
2022-10-14T05:01:05.837Z,19.51
2022-10-14T05:01:37.261Z,19.49
2022-10-14T05:02:08.728Z,19.49
2022-10-14T05:02:40.144Z,19.49
2022-10-14T05:03:11.532Z,19.48
2022-10-14T05:03:42.921Z,19.49
2022-10-14T05:04:14.441Z,19.49
2022-10-14T05:04:45.823Z,19.49
2022-10-14T05:05:17.212Z,19.48
2022-10-14T05:05:48.600Z,19.49
2022-10-14T05:06:20.007Z,19.48
2022-10-14T05:06:51.408Z,19.48
2022-10-14T05:07:22.797Z,19.49
2022-10-14T05:07:54.202Z,19.48
2022-10-14T05:08:25.653Z,19.49
2022-10-14T05:08:57.040Z,19.48
2022-10-14T05:09:28.464Z,19.48
2022-10-14T05:09:59.881Z,19.48
2022-10-14T05:10:31.271Z,19.48
2022-10-14T05:11:02.655Z,19.48
2022-10-14T05:11:34.040Z,19.47
2022-10-14T05:12:05.440Z,19.48
2022-10-14T05:12:36.828Z,19.47
2022-10-14T05:13:08.216Z,19.47
2022-10-14T05:13:39.608Z,19.48
2022-10-14T05:14:11.019Z,19.48
2022-10-14T05:14:42.461Z,19.47
2022-10-14T05:15:13.861Z,19.47
2022-10-14T05:15:45.273Z,19.47
2022-10-14T05:16:16.664Z,19.46
2022-10-14T05:16:48.108Z,19.46
2022-10-14T05:17:19.462Z,19.47
2022-10-14T05:17:50.854Z,19.46
2022-10-14T05:18:22.237Z,19.45
2022-10-14T05:18:53.623Z,19.46
2022-10-14T05:19:25.021Z,19.45
2022-10-14T05:19:56.561Z,19.45
2022-10-14T05:20:27.955Z,19.45
2022-10-14T05:20:59.345Z,19.44
2022-10-14T05:21:30.756Z,19.45
2022-10-14T05:22:02.144Z,19.44
2022-10-14T05:22:33.529Z,19.45
2022-10-14T05:23:04.915Z,19.44
2022-10-14T05:23:36.293Z,19.44
2022-10-14T05:24:07.677Z,19.44
2022-10-14T05:24:39.268Z,19.44
2022-10-14T05:25:10.652Z,19.44
2022-10-14T05:25:42.060Z,19.42
2022-10-14T05:26:13.468Z,19.42
2022-10-14T05:26:44.856Z,19.43
2022-10-14T05:27:16.244Z,19.42
2022-10-14T05:27:47.628Z,19.43
2022-10-14T05:28:19.050Z,19.42
2022-10-14T05:28:50.626Z,19.42
2022-10-14T05:29:22.094Z,19.42
2022-10-14T05:29:53.625Z,19.42
2022-10-14T05:30:25.008Z,19.41
2022-10-14T05:30:56.400Z,19.41
2022-10-14T05:31:27.794Z,19.41
2022-10-14T05:31:59.201Z,19.41
2022-10-14T05:32:30.626Z,19.41
2022-10-14T05:33:02.017Z,19.41
2022-10-14T05:33:33.478Z,19.41
2022-10-14T05:34:04.865Z,19.41
2022-10-14T05:34:36.258Z,19.41
2022-10-14T05:35:07.677Z,19.41
2022-10-14T05:35:58.163Z,19.40
2022-10-14T05:36:30.287Z,19.39
2022-10-14T05:37:01.693Z,19.39
2022-10-14T05:37:33.077Z,19.39
2022-10-14T05:38:04.578Z,19.39
2022-10-14T05:38:35.982Z,19.39
2022-10-14T05:39:07.372Z,19.39
2022-10-14T05:39:38.760Z,19.39
2022-10-14T05:40:10.260Z,19.39
2022-10-14T05:40:41.649Z,19.39
2022-10-14T05:41:13.044Z,19.39
2022-10-14T05:41:44.438Z,19.38
2022-10-14T05:42:15.912Z,19.39
2022-10-14T05:42:47.293Z,19.39
2022-10-14T05:43:18.696Z,19.38
2022-10-14T05:43:50.075Z,19.40
2022-10-14T05:44:21.459Z,19.39
2022-10-14T05:44:52.848Z,19.39
2022-10-14T05:45:24.316Z,19.39
2022-10-14T05:45:55.696Z,19.39
2022-10-14T05:46:27.080Z,19.39
2022-10-14T05:46:58.465Z,19.39
2022-10-14T05:47:29.898Z,19.39
2022-10-14T05:48:01.289Z,19.39
2022-10-14T05:48:32.688Z,19.39
2022-10-14T05:49:04.094Z,19.39
2022-10-14T05:49:35.513Z,19.40
2022-10-14T05:50:06.902Z,19.39
2022-10-14T05:50:38.376Z,19.38
2022-10-14T05:51:09.777Z,19.40
2022-10-14T05:51:41.177Z,19.39
2022-10-14T05:52:12.561Z,19.39
2022-10-14T05:52:43.975Z,19.39
2022-10-14T05:53:15.387Z,19.39
2022-10-14T05:53:46.803Z,19.38
2022-10-14T05:54:18.190Z,19.39
2022-10-14T05:54:49.577Z,19.39
2022-10-14T05:55:20.979Z,19.39
2022-10-14T05:55:52.437Z,19.38
2022-10-14T05:56:23.838Z,19.38
2022-10-14T05:56:55.235Z,19.38
2022-10-14T05:57:26.705Z,19.38
2022-10-14T05:57:58.091Z,19.38
2022-10-14T05:58:29.501Z,19.38
2022-10-14T05:59:00.904Z,19.37
2022-10-14T05:59:32.314Z,19.36
2022-10-14T06:00:03.699Z,19.38
2022-10-14T06:00:35.089Z,19.39
2022-10-14T06:01:06.541Z,19.38
2022-10-14T06:01:37.948Z,19.38
2022-10-14T06:02:09.337Z,19.38
2022-10-14T06:02:40.808Z,19.37
2022-10-14T06:03:12.295Z,19.38
2022-10-14T06:03:43.744Z,19.37
2022-10-14T06:04:15.157Z,19.38
2022-10-14T06:04:46.545Z,19.36
2022-10-14T06:05:17.947Z,19.36
2022-10-14T06:05:49.350Z,19.36
2022-10-14T06:06:24.167Z,19.37
2022-10-14T06:06:58.048Z,19.36
2022-10-14T06:07:29.448Z,19.36
2022-10-14T06:08:00.866Z,19.36
2022-10-14T06:08:32.282Z,19.38
2022-10-14T06:09:06.607Z,19.37
2022-10-14T06:09:41.815Z,19.36
2022-10-14T06:10:13.271Z,19.36
2022-10-14T06:10:44.680Z,19.37
2022-10-14T06:11:16.191Z,19.36
2022-10-14T06:11:47.598Z,19.38
2022-10-14T06:12:19.130Z,19.36
2022-10-14T06:12:50.730Z,19.36
2022-10-14T06:13:22.112Z,19.37
2022-10-14T06:13:53.504Z,19.36
2022-10-14T06:14:25.010Z,19.36
2022-10-14T06:14:56.416Z,19.36
2022-10-14T06:15:27.802Z,19.36
2022-10-14T06:15:59.187Z,19.37
2022-10-14T06:16:30.633Z,19.36
2022-10-14T06:17:02.023Z,19.36
2022-10-14T06:17:33.421Z,19.37
2022-10-14T06:18:04.824Z,19.35
2022-10-14T06:18:44.151Z,19.36
2022-10-14T06:19:15.904Z,19.36
2022-10-14T06:19:47.509Z,19.36
2022-10-14T06:20:19.025Z,19.37
2022-10-14T06:20:50.583Z,19.37
2022-10-14T06:21:22.122Z,19.37
2022-10-14T06:21:54.897Z,19.37
2022-10-14T06:22:26.290Z,19.38
2022-10-14T06:22:58.025Z,19.36
2022-10-14T06:23:29.412Z,19.36
2022-10-14T06:24:02.986Z,19.38
2022-10-14T06:24:34.600Z,19.39
2022-10-14T06:25:05.988Z,19.39
2022-10-14T06:25:37.401Z,19.39
2022-10-14T06:26:08.788Z,19.39
2022-10-14T06:26:40.185Z,19.39
2022-10-14T06:27:11.595Z,19.39
2022-10-14T06:27:43.360Z,19.39
2022-10-14T06:28:14.838Z,19.40
2022-10-14T06:28:46.450Z,19.40
2022-10-14T06:29:17.973Z,19.40
2022-10-14T06:29:49.372Z,19.39
2022-10-14T06:30:20.755Z,19.39
2022-10-14T06:30:52.156Z,19.39
2022-10-14T06:31:23.621Z,19.39
2022-10-14T06:31:55.011Z,19.40
2022-10-14T06:32:26.404Z,19.39
2022-10-14T06:32:57.789Z,19.39
2022-10-14T06:33:29.233Z,19.40
2022-10-14T06:34:00.639Z,19.39
2022-10-14T06:34:32.032Z,19.40
2022-10-14T06:35:03.420Z,19.40
2022-10-14T06:35:34.824Z,19.40
2022-10-14T06:36:06.230Z,19.40
2022-10-14T06:36:37.615Z,19.40
2022-10-14T06:37:09.253Z,19.41
2022-10-14T06:37:40.853Z,19.41
2022-10-14T06:38:12.365Z,19.41
2022-10-14T06:38:43.901Z,19.41
2022-10-14T06:39:15.284Z,19.42
2022-10-14T06:39:46.852Z,19.42
2022-10-14T06:40:18.415Z,19.42
2022-10-14T06:40:50.119Z,19.42
2022-10-14T06:41:21.563Z,19.42
2022-10-14T06:41:53.018Z,19.42
2022-10-14T06:42:24.775Z,19.43
2022-10-14T06:42:56.663Z,19.44
2022-10-14T06:43:28.141Z,19.42
2022-10-14T06:43:59.863Z,19.44
2022-10-14T06:44:31.426Z,19.43
2022-10-14T06:45:02.848Z,19.44
2022-10-14T06:45:34.633Z,19.44